createdAt,value
2023-04-18T00:00:34.034Z,100865.59
2023-04-18T00:03:04.670Z,100867.98
2023-04-18T00:05:33.894Z,100868.02
2023-04-18T00:08:03.095Z,100867.04
2023-04-18T00:10:31.563Z,100864.50
2023-04-18T00:13:00.650Z,100858.95
2023-04-18T00:15:30.465Z,100860.07
2023-04-18T00:17:58.780Z,100855.04
2023-04-18T00:20:27.365Z,100861.54
2023-04-18T00:22:56.368Z,100859.14
2023-04-18T00:25:24.741Z,100859.89
2023-04-18T00:27:53.197Z,100858.29
2023-04-18T00:30:21.667Z,100858.58
2023-04-18T00:32:50.091Z,100856.65
2023-04-18T00:35:19.747Z,100856.67
2023-04-18T00:37:48.232Z,100859.66
2023-04-18T00:40:17.847Z,100861.21
2023-04-18T00:42:46.457Z,100856.11
2023-04-18T00:45:15.868Z,100851.80
2023-04-18T00:47:44.559Z,100848.92
2023-04-18T00:50:13.299Z,100848.36
2023-04-18T00:52:43.227Z,100846.35
2023-04-18T00:55:11.792Z,100843.24
2023-04-18T00:57:40.289Z,100838.58
2023-04-18T01:00:10.537Z,100836.55
2023-04-18T01:02:41.053Z,100834.73
2023-04-18T01:05:10.018Z,100836.61
2023-04-18T01:07:41.909Z,100835.50
2023-04-18T01:10:10.792Z,100830.91
2023-04-18T01:12:40.536Z,100831.09
2023-04-18T01:15:09.478Z,100827.03
2023-04-18T01:17:38.757Z,100826.17
2023-04-18T01:20:08.182Z,100825.88
2023-04-18T01:22:36.765Z,100824.50
2023-04-18T01:25:09.336Z,100823.41
2023-04-18T01:27:38.083Z,100820.94
2023-04-18T01:30:07.654Z,100818.09
2023-04-18T01:32:36.493Z,100817.97
2023-04-18T01:35:05.823Z,100816.17
2023-04-18T01:37:35.392Z,100811.98
2023-04-18T01:40:04.806Z,100810.71
2023-04-18T01:42:33.472Z,100817.67
2023-04-18T01:45:02.515Z,100815.48
2023-04-18T01:47:31.168Z,100813.70
2023-04-18T01:49:59.687Z,100814.79
2023-04-18T01:52:31.279Z,100811.98
2023-04-18T01:54:59.721Z,100817.64
2023-04-18T01:57:28.975Z,100818.40
2023-04-18T01:59:57.310Z,100821.02
2023-04-18T02:02:26.018Z,100818.14
2023-04-18T02:04:54.458Z,100819.79
2023-04-18T02:07:23.044Z,100817.52
2023-04-18T02:09:51.421Z,100813.71
2023-04-18T02:12:20.392Z,100818.18
2023-04-18T02:14:51.763Z,100814.83
2023-04-18T02:17:21.779Z,100814.36
2023-04-18T02:19:53.647Z,100814.00
2023-04-18T02:22:22.509Z,100818.27
2023-04-18T02:24:51.011Z,100817.52
2023-04-18T02:27:19.437Z,100819.50
2023-04-18T02:29:48.221Z,100819.94
2023-04-18T02:32:16.661Z,100820.42
2023-04-18T02:34:46.087Z,100816.62
2023-04-18T02:37:14.577Z,100819.99
2023-04-18T02:39:43.025Z,100816.73
2023-04-18T02:42:11.513Z,100817.86
2023-04-18T02:44:39.975Z,100819.72
2023-04-18T02:47:08.471Z,100819.20
2023-04-18T02:49:39.063Z,100819.29
2023-04-18T02:52:08.148Z,100819.69
2023-04-18T02:54:36.516Z,100811.83
2023-04-18T02:57:08.445Z,100816.19
2023-04-18T02:59:54.845Z,100812.92
2023-04-18T03:02:42.923Z,100810.59
2023-04-18T03:05:47.264Z,100807.17
2023-04-18T03:08:16.803Z,100808.66
2023-04-18T03:10:45.434Z,100803.50
2023-04-18T03:13:14.129Z,100809.05
2023-04-18T03:15:43.190Z,100803.36
2023-04-18T03:18:12.739Z,100791.23
2023-04-18T03:20:41.375Z,100784.59
2023-04-18T03:23:10.056Z,100785.95
2023-04-18T03:25:38.422Z,100783.41
2023-04-18T03:28:06.904Z,100786.36
2023-04-18T03:30:36.211Z,100786.31
2023-04-18T03:33:05.481Z,100787.52
2023-04-18T03:35:34.353Z,100789.33
2023-04-18T03:38:03.022Z,100788.42
2023-04-18T03:40:34.263Z,100793.05
2023-04-18T03:43:07.363Z,100788.14
2023-04-18T03:45:36.856Z,100783.56
2023-04-18T03:48:06.315Z,100778.00
2023-04-18T03:50:36.666Z,100773.33
2023-04-18T03:53:05.763Z,100775.05
2023-04-18T03:55:34.749Z,100774.89
2023-04-18T03:58:03.731Z,100775.17
2023-04-18T04:00:32.420Z,100776.56
2023-04-18T04:03:04.069Z,100771.87
2023-04-18T04:05:33.139Z,100778.86
2023-04-18T04:08:01.868Z,100778.99
2023-04-18T04:10:30.749Z,100774.08
2023-04-18T04:13:00.081Z,100769.34
2023-04-18T04:15:29.451Z,100772.69
2023-04-18T04:18:02.829Z,100775.82
2023-04-18T04:20:31.742Z,100765.06
2023-04-18T04:23:06.577Z,100761.65
2023-04-18T04:25:35.970Z,100753.42
2023-04-18T04:28:08.658Z,100753.14
2023-04-18T04:30:44.809Z,100749.86
2023-04-18T04:33:13.296Z,100761.50
2023-04-18T04:35:42.076Z,100752.14
2023-04-18T04:38:12.608Z,100748.86
2023-04-18T04:40:46.567Z,100753.31
2023-04-18T04:43:16.683Z,100755.73
2023-04-18T04:45:46.565Z,100756.23
2023-04-18T04:48:15.556Z,100760.48
2023-04-18T04:50:44.764Z,100757.63
2023-04-18T04:53:13.320Z,100750.92
2023-04-18T04:55:42.115Z,100753.98
2023-04-18T04:58:10.825Z,100755.30
2023-04-18T05:00:48.230Z,100754.02
2023-04-18T05:03:17.194Z,100759.70
2023-04-18T05:05:46.095Z,100760.79
2023-04-18T05:08:14.447Z,100763.84
2023-04-18T05:10:43.518Z,100768.28
2023-04-18T05:13:12.127Z,100767.86
2023-04-18T05:15:41.121Z,100780.96
2023-04-18T05:18:09.557Z,100774.50
2023-04-18T05:20:37.945Z,100783.52
2023-04-18T05:23:06.358Z,100781.44
2023-04-18T05:25:35.003Z,100784.91
2023-04-18T05:28:08.613Z,100797.58
2023-04-18T05:30:37.076Z,100788.45
2023-04-18T05:33:05.704Z,100795.88
2023-04-18T05:35:34.267Z,100798.16
2023-04-18T05:38:02.780Z,100798.26
2023-04-18T05:40:31.308Z,100793.34
2023-04-18T05:43:01.170Z,100792.45
2023-04-18T05:45:29.759Z,100790.26
2023-04-18T05:47:58.604Z,100789.47
2023-04-18T05:50:27.282Z,100779.24
2023-04-18T05:52:55.817Z,100786.10
2023-04-18T05:55:24.232Z,100779.18
2023-04-18T05:57:52.912Z,100772.58
2023-04-18T06:00:21.925Z,100779.11
2023-04-18T06:02:51.205Z,100769.29
2023-04-18T06:05:20.327Z,100764.63
2023-04-18T06:07:48.955Z,100767.63
2023-04-18T06:10:17.659Z,100762.55
2023-04-18T06:12:46.020Z,100767.55
2023-04-18T06:15:14.500Z,100767.56
2023-04-18T06:17:43.169Z,100759.89
2023-04-18T06:20:12.082Z,100756.18
2023-04-18T06:22:40.702Z,100763.31
2023-04-18T06:25:10.225Z,100768.13
2023-04-18T06:27:39.063Z,100754.95
2023-04-18T06:30:08.361Z,100755.13
2023-04-18T06:32:36.788Z,100748.92
2023-04-18T06:35:05.837Z,100752.98
2023-04-18T06:37:34.928Z,100749.90
2023-04-18T06:40:03.721Z,100750.70
2023-04-18T06:42:32.372Z,100760.94
2023-04-18T06:45:01.088Z,100758.65
2023-04-18T06:47:29.863Z,100760.48
2023-04-18T06:49:58.682Z,100762.85
2023-04-18T06:52:27.095Z,100759.73
2023-04-18T06:54:55.768Z,100747.13
2023-04-18T06:57:24.441Z,100743.48
2023-04-18T06:59:53.126Z,100744.53
2023-04-18T07:02:21.552Z,100740.11
2023-04-18T07:04:50.484Z,100739.50
2023-04-18T07:07:19.225Z,100731.27
2023-04-18T07:09:49.282Z,100728.44
2023-04-18T07:12:18.438Z,100718.27
2023-04-18T07:14:47.269Z,100719.49
2023-04-18T07:17:15.846Z,100726.94
2023-04-18T07:19:44.564Z,100719.98
2023-04-18T07:22:12.974Z,100718.56
2023-04-18T07:24:41.426Z,100712.42
2023-04-18T07:27:09.980Z,100709.80
2023-04-18T07:29:38.656Z,100712.63
2023-04-18T07:32:08.499Z,100698.19
2023-04-18T07:34:37.874Z,100704.35
2023-04-18T07:37:07.188Z,100706.78
2023-04-18T07:39:36.476Z,100701.84
2023-04-18T07:42:05.061Z,100700.16
2023-04-18T07:44:35.289Z,100698.06
2023-04-18T07:47:04.098Z,100694.41
2023-04-18T07:49:32.698Z,100675.73
2023-04-18T07:52:01.278Z,100675.01
2023-04-18T07:54:30.047Z,100681.27
2023-04-18T07:56:59.378Z,100677.46
2023-04-18T07:59:29.045Z,100668.15
2023-04-18T08:01:57.323Z,100663.60
2023-04-18T08:04:29.101Z,100658.85
2023-04-18T08:06:58.488Z,100653.70
2023-04-18T08:09:26.959Z,100650.58
2023-04-18T08:11:56.971Z,100656.64
2023-04-18T08:14:25.374Z,100659.77
2023-04-18T08:16:53.983Z,100648.88
2023-04-18T08:19:22.314Z,100650.09
2023-04-18T08:21:51.438Z,100670.00
2023-04-18T08:24:19.802Z,100687.63
2023-04-18T08:26:48.275Z,100670.65
2023-04-18T08:29:16.724Z,100665.81
2023-04-18T08:31:45.074Z,100667.98
2023-04-18T08:34:13.718Z,100666.20
2023-04-18T08:36:42.271Z,100668.61
2023-04-18T08:39:11.573Z,100664.38
2023-04-18T08:41:40.018Z,100667.70
2023-04-18T08:44:08.562Z,100664.36
2023-04-18T08:46:37.885Z,100663.86
2023-04-18T08:49:06.367Z,100665.40
2023-04-18T08:51:35.540Z,100666.63
2023-04-18T08:54:06.402Z,100674.89
2023-04-18T08:56:37.723Z,100677.70
2023-04-18T08:59:06.277Z,100668.40
2023-04-18T09:01:59.074Z,100667.48
2023-04-18T09:04:45.053Z,100663.10
2023-04-18T09:07:14.968Z,100666.93
2023-04-18T09:09:45.775Z,100658.39
2023-04-18T09:12:16.222Z,100656.39
2023-04-18T09:14:46.991Z,100653.00
2023-04-18T09:17:32.163Z,100648.98
2023-04-18T09:20:01.812Z,100654.06
2023-04-18T09:22:47.356Z,100648.64
2023-04-18T09:25:27.637Z,100646.42
2023-04-18T09:28:02.001Z,100645.27
2023-04-18T09:30:35.165Z,100639.65
2023-04-18T09:33:04.934Z,100633.70
2023-04-18T09:35:33.581Z,100650.56
2023-04-18T09:38:02.177Z,100630.48
2023-04-18T09:40:31.287Z,100621.00
2023-04-18T09:42:59.777Z,100622.63
2023-04-18T09:45:28.903Z,100620.86
2023-04-18T09:47:57.689Z,100615.73
2023-04-18T09:50:26.210Z,100616.98
2023-04-18T09:52:54.651Z,100615.25
2023-04-18T09:55:23.318Z,100599.64
2023-04-18T09:57:51.791Z,100601.41
2023-04-18T10:00:25.433Z,100599.05
2023-04-18T10:02:58.406Z,100601.88
2023-04-18T10:05:28.754Z,100607.66
2023-04-18T10:07:58.615Z,100613.75
2023-04-18T10:10:27.112Z,100611.09
2023-04-18T10:12:56.783Z,100611.15
2023-04-18T10:15:26.630Z,100597.84
2023-04-18T10:18:05.316Z,100609.73
2023-04-18T10:20:35.585Z,100604.37
2023-04-18T10:23:32.784Z,100592.21
2023-04-18T10:26:02.000Z,100590.71
2023-04-18T10:28:51.294Z,100583.02
2023-04-18T10:31:23.783Z,100605.59
2023-04-18T10:34:18.322Z,100597.30
2023-04-18T10:37:06.373Z,100601.16
2023-04-18T10:39:57.776Z,100605.83
2023-04-18T10:42:48.522Z,100606.83
2023-04-18T10:45:23.781Z,100599.84
2023-04-18T10:48:14.771Z,100593.50
2023-04-18T10:51:15.904Z,100597.36
2023-04-18T10:53:51.083Z,100590.31
2023-04-18T10:56:19.425Z,100594.41
2023-04-18T10:58:51.732Z,100589.66
2023-04-18T11:01:32.407Z,100578.51
2023-04-18T11:04:01.578Z,100585.85
2023-04-18T11:06:31.625Z,100581.04
2023-04-18T11:09:13.589Z,100576.61
2023-04-18T11:11:42.186Z,100577.66
2023-04-18T11:14:10.850Z,100578.38
2023-04-18T11:16:40.139Z,100573.70
2023-04-18T11:19:21.925Z,100569.15
2023-04-18T11:21:51.541Z,100568.33
2023-04-18T11:24:24.400Z,100558.80
2023-04-18T11:26:56.395Z,100556.15
2023-04-18T11:29:25.153Z,100557.79
2023-04-18T11:31:55.995Z,100555.50
2023-04-18T11:34:30.887Z,100544.60
2023-04-18T11:36:59.379Z,100545.48
2023-04-18T11:39:28.087Z,100545.29
2023-04-18T11:41:57.436Z,100553.04
2023-04-18T11:44:26.406Z,100549.98
2023-04-18T11:46:54.690Z,100556.17
2023-04-18T11:49:30.140Z,100538.52
2023-04-18T11:52:01.896Z,100539.33
2023-04-18T11:54:48.432Z,100534.63
2023-04-18T11:57:23.189Z,100522.73
2023-04-18T11:59:56.565Z,100530.39
2023-04-18T12:02:26.657Z,100532.36
2023-04-18T12:04:59.667Z,100521.51
2023-04-18T12:07:41.361Z,100512.09
2023-04-18T12:10:22.128Z,100515.98
2023-04-18T12:12:51.861Z,100515.79
2023-04-18T12:15:20.690Z,100516.63
2023-04-18T12:17:49.107Z,100504.77
2023-04-18T12:20:18.636Z,100502.62
2023-04-18T12:22:52.036Z,100512.51
2023-04-18T12:25:27.736Z,100515.94
2023-04-18T12:27:58.492Z,100515.73
2023-04-18T12:30:31.872Z,100501.60
2023-04-18T12:33:01.606Z,100501.47
2023-04-18T12:35:31.243Z,100496.27
2023-04-18T12:38:01.251Z,100494.69
2023-04-18T12:40:30.045Z,100495.23
2023-04-18T12:42:58.515Z,100491.90
2023-04-18T12:45:27.355Z,100494.36
2023-04-18T12:47:55.776Z,100506.40
2023-04-18T12:50:25.537Z,100510.57
2023-04-18T12:52:54.782Z,100517.30
2023-04-18T12:55:23.212Z,100514.33
2023-04-18T12:57:54.517Z,100518.22
2023-04-18T13:00:24.158Z,100522.67
2023-04-18T13:02:53.004Z,100522.75
2023-04-18T13:05:22.629Z,100518.67
2023-04-18T13:07:56.233Z,100522.02
2023-04-18T13:10:31.164Z,100511.56
2023-04-18T13:12:59.688Z,100505.50
2023-04-18T13:15:28.008Z,100501.11
2023-04-18T13:17:57.102Z,100500.38
2023-04-18T13:20:25.807Z,100501.44
2023-04-18T13:22:54.192Z,100496.84
2023-04-18T13:25:23.463Z,100494.14
2023-04-18T13:27:52.276Z,100496.76
2023-04-18T13:30:20.652Z,100496.62
2023-04-18T13:32:49.501Z,100495.81
2023-04-18T13:35:18.218Z,100488.67
2023-04-18T13:37:46.731Z,100481.28
2023-04-18T13:40:15.805Z,100488.64
2023-04-18T13:42:44.362Z,100489.48
2023-04-18T13:45:12.815Z,100490.35
2023-04-18T13:47:41.573Z,100489.05
2023-04-18T13:50:11.165Z,100497.16
2023-04-18T13:52:39.581Z,100503.88
2023-04-18T13:55:08.552Z,100495.77
2023-04-18T13:57:37.765Z,100495.27
2023-04-18T14:00:07.308Z,100486.56
2023-04-18T14:02:41.769Z,100492.73
2023-04-18T14:05:10.845Z,100494.78
2023-04-18T14:07:39.573Z,100489.30
2023-04-18T14:10:08.687Z,100497.09
2023-04-18T14:12:37.731Z,100483.96
2023-04-18T14:15:07.044Z,100483.27
2023-04-18T14:17:35.873Z,100482.74
2023-04-18T14:20:05.494Z,100482.63
2023-04-18T14:22:34.626Z,100476.16
2023-04-18T14:25:03.180Z,100471.09
2023-04-18T14:27:33.189Z,100473.69
2023-04-18T14:30:01.706Z,100478.91
2023-04-18T14:32:31.016Z,100490.02
2023-04-18T14:34:59.347Z,100481.96
2023-04-18T14:37:27.685Z,100481.86
2023-04-18T14:39:56.466Z,100485.25
2023-04-18T14:42:24.934Z,100483.19
2023-04-18T14:44:53.414Z,100485.98
2023-04-18T14:47:24.346Z,100482.30
2023-04-18T14:49:52.840Z,100485.05
2023-04-18T14:52:21.357Z,100482.92
2023-04-18T14:54:49.904Z,100476.35
2023-04-18T14:57:18.379Z,100474.96
2023-04-18T14:59:46.861Z,100480.81
2023-04-18T15:02:15.846Z,100475.54
2023-04-18T15:04:44.497Z,100477.83
2023-04-18T15:07:13.267Z,100466.71
2023-04-18T15:09:41.730Z,100462.98
2023-04-18T15:12:10.495Z,100462.19
2023-04-18T15:14:39.906Z,100459.04
2023-04-18T15:17:08.541Z,100455.33
2023-04-18T15:19:37.746Z,100456.54
2023-04-18T15:22:06.991Z,100461.11
2023-04-18T15:24:35.438Z,100471.15
2023-04-18T15:27:04.074Z,100466.25
2023-04-18T15:29:32.430Z,100469.26
2023-04-18T15:32:01.893Z,100470.66
2023-04-18T15:34:30.509Z,100476.04
2023-04-18T15:36:58.943Z,100476.92
2023-04-18T15:39:27.527Z,100483.59
2023-04-18T15:41:56.712Z,100480.10
2023-04-18T15:44:24.980Z,100484.35
2023-04-18T15:46:53.853Z,100480.14
2023-04-18T15:49:22.843Z,100482.88
2023-04-18T15:51:51.116Z,100479.70
2023-04-18T15:54:19.806Z,100485.27
2023-04-18T15:56:48.562Z,100484.41
2023-04-18T15:59:17.176Z,100484.14
2023-04-18T16:01:46.281Z,100486.79
2023-04-18T16:04:15.680Z,100483.93
2023-04-18T16:06:44.619Z,100484.46
2023-04-18T16:09:13.343Z,100483.02
2023-04-18T16:11:41.847Z,100484.07
2023-04-18T16:14:10.515Z,100481.86
2023-04-18T16:16:39.258Z,100484.79
2023-04-18T16:19:07.678Z,100486.10
2023-04-18T16:21:36.364Z,100487.16
2023-04-18T16:24:05.352Z,100487.01
2023-04-18T16:26:34.255Z,100486.26
2023-04-18T16:29:03.051Z,100486.36
2023-04-18T16:31:33.912Z,100489.13
2023-04-18T16:34:03.489Z,100486.59
2023-04-18T16:36:34.451Z,100491.17
2023-04-18T16:39:03.007Z,100481.02
2023-04-18T16:41:31.895Z,100481.48
2023-04-18T16:44:00.680Z,100480.72
2023-04-18T16:46:32.471Z,100482.36
2023-04-18T16:49:02.030Z,100481.52
2023-04-18T16:51:31.397Z,100484.10
2023-04-18T16:53:59.652Z,100491.16
2023-04-18T16:56:29.321Z,100493.46
2023-04-18T16:58:58.769Z,100494.02
2023-04-18T17:01:27.281Z,100490.42
2023-04-18T17:03:56.061Z,100491.23
2023-04-18T17:06:25.056Z,100495.02
2023-04-18T17:08:54.102Z,100493.11
2023-04-18T17:11:22.569Z,100491.65
2023-04-18T17:13:51.646Z,100494.48
2023-04-18T17:16:20.343Z,100496.48
2023-04-18T17:18:50.112Z,100491.77
2023-04-18T17:21:18.684Z,100489.75
2023-04-18T17:23:47.774Z,100490.77
2023-04-18T17:26:16.288Z,100493.10
2023-04-18T17:28:45.027Z,100491.09
2023-04-18T17:31:15.421Z,100493.58
2023-04-18T17:33:44.960Z,100492.79
2023-04-18T17:36:13.702Z,100493.11
2023-04-18T17:38:48.957Z,100488.77
2023-04-18T17:41:18.276Z,100490.09
2023-04-18T17:43:48.310Z,100496.38
2023-04-18T17:46:17.101Z,100493.98
2023-04-18T17:48:45.668Z,100488.90
2023-04-18T17:51:16.632Z,100487.15
2023-04-18T17:53:45.141Z,100478.39
2023-04-18T17:56:13.669Z,100483.29
2023-04-18T17:58:42.555Z,100482.61
2023-04-18T18:01:17.837Z,100478.64
2023-04-18T18:03:47.349Z,100478.23
2023-04-18T18:06:16.293Z,100476.96
2023-04-18T18:08:44.780Z,100477.13
2023-04-18T18:11:13.488Z,100471.52
2023-04-18T18:13:42.685Z,100470.34
2023-04-18T18:16:11.536Z,100469.09
2023-04-18T18:18:40.352Z,100465.20
2023-04-18T18:21:09.211Z,100466.21
2023-04-18T18:23:37.612Z,100466.35
2023-04-18T18:26:06.912Z,100465.31
2023-04-18T18:28:35.976Z,100463.19
2023-04-18T18:31:04.498Z,100462.42
2023-04-18T18:33:33.234Z,100461.57
2023-04-18T18:36:02.169Z,100458.27
2023-04-18T18:38:30.781Z,100459.16
2023-04-18T18:41:00.989Z,100457.42
2023-04-18T18:43:31.211Z,100457.33
2023-04-18T18:45:59.757Z,100452.40
2023-04-18T18:48:28.471Z,100443.26
2023-04-18T18:50:57.393Z,100439.33
2023-04-18T18:53:26.317Z,100432.52
2023-04-18T18:55:54.860Z,100432.78
2023-04-18T18:58:23.325Z,100424.96
2023-04-18T19:00:51.998Z,100426.97
2023-04-18T19:03:21.972Z,100423.81
2023-04-18T19:05:50.795Z,100424.44
2023-04-18T19:08:19.509Z,100424.14
2023-04-18T19:10:48.215Z,100425.71
2023-04-18T19:13:21.387Z,100425.17
2023-04-18T19:15:49.885Z,100425.35
2023-04-18T19:18:20.178Z,100423.61
2023-04-18T19:20:52.304Z,100424.00
2023-04-18T19:23:21.121Z,100426.02
2023-04-18T19:25:50.454Z,100425.23
2023-04-18T19:28:19.320Z,100424.59
2023-04-18T19:30:47.793Z,100424.11
2023-04-18T19:33:17.405Z,100420.89
2023-04-18T19:35:47.704Z,100421.15
2023-04-18T19:38:16.208Z,100420.17
2023-04-18T19:40:44.792Z,100415.71
2023-04-18T19:43:13.406Z,100411.44
2023-04-18T19:45:41.741Z,100412.59
2023-04-18T19:48:10.340Z,100410.81
2023-04-18T19:50:42.503Z,100406.56
2023-04-18T19:53:11.497Z,100403.73
2023-04-18T19:55:39.974Z,100399.75
2023-04-18T19:58:08.575Z,100405.53
2023-04-18T20:00:38.101Z,100406.81
2023-04-18T20:03:06.774Z,100398.64
2023-04-18T20:05:35.294Z,100395.31
2023-04-18T20:08:03.916Z,100397.17
2023-04-18T20:10:33.282Z,100395.38
2023-04-18T20:13:02.340Z,100390.48
2023-04-18T20:15:30.949Z,100391.33
2023-04-18T20:17:59.561Z,100387.23
2023-04-18T20:20:28.382Z,100382.46
2023-04-18T20:22:56.585Z,100379.46
2023-04-18T20:25:24.931Z,100377.92
2023-04-18T20:27:53.710Z,100372.70
2023-04-18T20:30:22.504Z,100370.49
2023-04-18T20:32:50.830Z,100369.60
2023-04-18T20:35:20.310Z,100364.09
2023-04-18T20:37:50.000Z,100359.77
2023-04-18T20:40:18.886Z,100357.38
2023-04-18T20:42:47.703Z,100357.10
2023-04-18T20:45:16.470Z,100354.85
2023-04-18T20:47:44.984Z,100354.84
2023-04-18T20:50:16.283Z,100353.33
2023-04-18T20:52:44.973Z,100352.52
2023-04-18T20:55:13.815Z,100348.95
2023-04-18T20:57:42.140Z,100348.41
2023-04-18T21:00:11.339Z,100347.22
2023-04-18T21:02:41.620Z,100340.98
2023-04-18T21:05:10.251Z,100338.24
2023-04-18T21:07:38.942Z,100333.16
2023-04-18T21:10:08.460Z,100331.19
2023-04-18T21:12:37.650Z,100326.02
2023-04-18T21:15:06.944Z,100323.16
2023-04-18T21:17:35.693Z,100322.85
2023-04-18T21:20:04.969Z,100317.17
2023-04-18T21:22:33.541Z,100312.60
2023-04-18T21:25:02.812Z,100311.23
2023-04-18T21:27:31.399Z,100309.75
2023-04-18T21:29:59.784Z,100307.09
2023-04-18T21:32:28.571Z,100303.08
2023-04-18T21:34:58.072Z,100305.52
2023-04-18T21:37:26.450Z,100305.04
2023-04-18T21:39:54.979Z,100313.09
2023-04-18T21:42:23.424Z,100311.23
2023-04-18T21:44:51.908Z,100312.00
2023-04-18T21:47:20.928Z,100313.40
2023-04-18T21:49:49.458Z,100314.92
2023-04-18T21:52:18.050Z,100308.56
2023-04-18T21:54:46.648Z,100311.69
2023-04-18T21:57:15.131Z,100314.20
2023-04-18T21:59:43.619Z,100312.37
2023-04-18T22:02:12.888Z,100312.53
2023-04-18T22:04:42.915Z,100314.44
2023-04-18T22:07:15.930Z,100315.44
2023-04-18T22:09:45.634Z,100312.59
2023-04-18T22:12:16.989Z,100308.55
2023-04-18T22:14:48.550Z,100311.40
2023-04-18T22:17:17.100Z,100307.05
2023-04-18T22:19:45.375Z,100310.45
2023-04-18T22:22:13.953Z,100308.53
2023-04-18T22:24:42.436Z,100301.65
2023-04-18T22:27:11.124Z,100302.20
2023-04-18T22:29:39.512Z,100303.17
2023-04-18T22:32:08.028Z,100303.86
2023-04-18T22:34:36.565Z,100302.69
2023-04-18T22:37:05.174Z,100305.05
2023-04-18T22:39:35.177Z,100304.66
2023-04-18T22:42:03.648Z,100308.08
2023-04-18T22:44:33.356Z,100310.27
2023-04-18T22:47:03.351Z,100309.29
2023-04-18T22:49:33.484Z,100301.02
2023-04-18T22:52:01.972Z,100299.41
2023-04-18T22:54:31.273Z,100300.36
2023-04-18T22:56:59.793Z,100299.44
2023-04-18T22:59:28.256Z,100300.44
2023-04-18T23:01:57.539Z,100297.90
2023-04-18T23:04:26.651Z,100294.40
2023-04-18T23:06:55.120Z,100294.04
2023-04-18T23:09:24.640Z,100293.05
2023-04-18T23:11:53.026Z,100287.25
2023-04-18T23:14:21.695Z,100288.12
2023-04-18T23:16:50.064Z,100283.96
2023-04-18T23:19:18.524Z,100282.36
2023-04-18T23:21:48.982Z,100275.34
2023-04-18T23:24:18.117Z,100270.02
2023-04-18T23:26:46.892Z,100271.48
2023-04-18T23:29:15.365Z,100273.65
2023-04-18T23:31:43.968Z,100273.66
2023-04-18T23:34:12.727Z,100271.38
2023-04-18T23:36:41.297Z,100272.53
2023-04-18T23:39:09.867Z,100273.35
2023-04-18T23:41:38.743Z,100275.56
2023-04-18T23:44:07.456Z,100276.66
2023-04-18T23:46:36.621Z,100269.69
2023-04-18T23:49:05.242Z,100272.64
2023-04-18T23:51:33.756Z,100272.01
2023-04-18T23:54:02.224Z,100269.82
2023-04-18T23:56:30.898Z,100260.92
2023-04-18T23:58:59.476Z,100259.70
